createdAt,value
2018-07-21T00:00:26.448Z,67.48
2018-07-21T00:02:57.212Z,67.60
2018-07-21T00:05:27.756Z,67.98
2018-07-21T00:07:58.212Z,68.04
2018-07-21T00:10:28.612Z,67.84
2018-07-21T00:13:01.058Z,68.19
2018-07-21T00:15:31.474Z,68.12
2018-07-21T00:18:02.784Z,67.83
2018-07-21T00:20:33.828Z,67.45
2018-07-21T00:23:04.650Z,67.61
2018-07-21T00:25:35.116Z,67.54
2018-07-21T00:28:05.453Z,67.92
2018-07-21T00:30:35.899Z,67.98
2018-07-21T00:33:06.580Z,67.95
2018-07-21T00:35:37.004Z,68.55
2018-07-21T00:38:07.498Z,68.98
2018-07-21T00:40:37.932Z,69.08
2018-07-21T00:43:08.594Z,69.25
2018-07-21T00:45:38.946Z,69.22
2018-07-21T00:48:09.448Z,69.45
2018-07-21T00:50:39.806Z,69.30
2018-07-21T00:53:10.496Z,69.66
2018-07-21T00:55:41.230Z,70.18
2018-07-21T00:58:11.043Z,70.15
2018-07-21T01:00:41.432Z,69.54
2018-07-21T01:03:11.774Z,69.21
2018-07-21T01:05:41.618Z,69.02
2018-07-21T01:08:11.424Z,68.46
2018-07-21T01:10:41.259Z,67.90
2018-07-21T01:13:11.051Z,68.20
2018-07-21T01:15:41.533Z,67.41
2018-07-21T01:18:11.897Z,68.13
2018-07-21T01:20:42.133Z,67.24
2018-07-21T01:23:12.772Z,66.81
2018-07-21T01:25:42.628Z,66.57
2018-07-21T01:28:12.947Z,66.46
2018-07-21T01:30:43.318Z,65.57
2018-07-21T01:33:13.639Z,66.13
2018-07-21T01:35:44.039Z,65.68
2018-07-21T01:38:13.808Z,65.65
2018-07-21T01:40:44.020Z,65.24
2018-07-21T01:43:14.414Z,64.99
2018-07-21T01:45:44.915Z,65.58
2018-07-21T01:48:15.921Z,65.10
2018-07-21T01:50:46.147Z,65.40
2018-07-21T01:53:16.033Z,65.50
2018-07-21T01:55:45.867Z,65.49
2018-07-21T01:58:15.971Z,66.02
2018-07-21T02:00:45.783Z,65.83
2018-07-21T02:03:16.159Z,65.83
2018-07-21T02:05:46.955Z,65.59
2018-07-21T02:08:17.111Z,65.62
2018-07-21T02:10:46.975Z,65.67
2018-07-21T02:13:17.168Z,65.68
2018-07-21T02:15:47.654Z,65.96
2018-07-21T02:18:17.805Z,65.36
2018-07-21T02:20:47.610Z,65.37
2018-07-21T02:23:17.390Z,65.63
2018-07-21T02:25:47.739Z,65.52
2018-07-21T02:28:17.683Z,65.57
2018-07-21T02:30:47.499Z,65.62
2018-07-21T02:33:17.329Z,65.61
2018-07-21T02:35:47.131Z,65.87
2018-07-21T02:38:16.921Z,65.60
2018-07-21T02:40:46.873Z,65.83
2018-07-21T02:43:16.716Z,66.11
2018-07-21T02:45:46.512Z,66.14
2018-07-21T02:48:16.477Z,65.88
2018-07-21T02:50:46.249Z,65.59
2018-07-21T02:53:16.889Z,65.76
2018-07-21T02:55:46.727Z,65.66
2018-07-21T02:58:16.692Z,65.29
2018-07-21T03:00:47.057Z,64.88
2018-07-21T03:03:17.431Z,65.45
2018-07-21T03:05:47.539Z,65.33
2018-07-21T03:08:17.926Z,64.75
2018-07-21T03:10:48.287Z,65.07
2018-07-21T03:13:18.631Z,65.28
2018-07-21T03:15:48.759Z,65.43
2018-07-21T03:18:19.125Z,65.46
2018-07-21T03:20:49.257Z,65.97
2018-07-21T03:23:19.130Z,65.78
2018-07-21T03:25:48.877Z,65.21
2018-07-21T03:28:18.812Z,65.12
2018-07-21T03:30:48.901Z,65.35
2018-07-21T03:33:19.451Z,64.94
2018-07-21T03:35:49.273Z,65.46
2018-07-21T03:38:19.839Z,65.34
2018-07-21T03:40:50.249Z,64.69
2018-07-21T03:43:20.585Z,64.80
2018-07-21T03:45:50.931Z,64.87
2018-07-21T03:48:20.789Z,64.78
2018-07-21T03:50:51.519Z,65.19
2018-07-21T03:53:21.927Z,65.25
2018-07-21T03:55:52.312Z,64.59
2018-07-21T03:58:22.671Z,64.70
2018-07-21T04:00:53.023Z,65.47
2018-07-21T04:03:23.659Z,65.73
2018-07-21T04:05:54.280Z,65.92
2018-07-21T04:08:24.632Z,66.57
2018-07-21T04:10:55.014Z,66.86
2018-07-21T04:13:24.841Z,67.58
2018-07-21T04:15:54.619Z,67.79
2018-07-21T04:18:24.400Z,67.91
2018-07-21T04:20:54.195Z,68.04
2018-07-21T04:23:24.190Z,68.33
2018-07-21T04:25:54.001Z,68.72
2018-07-21T04:28:23.786Z,68.38
2018-07-21T04:30:53.698Z,68.59
2018-07-21T04:33:23.467Z,68.43
2018-07-21T04:35:53.239Z,68.61
2018-07-21T04:38:23.094Z,69.15
2018-07-21T04:40:53.121Z,68.59
2018-07-21T04:43:23.491Z,68.57
2018-07-21T04:45:53.672Z,68.63
2018-07-21T04:48:23.806Z,68.23
2018-07-21T04:50:54.221Z,68.52
2018-07-21T04:53:24.586Z,68.45
2018-07-21T04:55:54.935Z,68.55
2018-07-21T04:58:24.717Z,68.61
2018-07-21T05:00:54.647Z,68.77
2018-07-21T05:03:24.569Z,68.56
2018-07-21T05:05:55.275Z,68.37
2018-07-21T05:08:25.115Z,68.29
2018-07-21T05:10:55.600Z,68.67
2018-07-21T05:13:25.491Z,69.09
2018-07-21T05:15:55.397Z,70.19
2018-07-21T05:18:25.198Z,70.93
2018-07-21T05:20:55.094Z,71.30
2018-07-21T05:23:25.259Z,71.14
2018-07-21T05:25:55.080Z,71.56
2018-07-21T05:28:25.277Z,72.30
2018-07-21T05:30:55.117Z,72.10
2018-07-21T05:33:24.925Z,72.29
2018-07-21T05:35:54.828Z,72.91
2018-07-21T05:38:24.640Z,72.95
2018-07-21T05:40:54.402Z,72.15
2018-07-21T05:43:24.460Z,72.64
2018-07-21T05:45:54.228Z,72.70
2018-07-21T05:48:23.971Z,72.56
2018-07-21T05:50:53.782Z,71.52
2018-07-21T05:53:23.902Z,71.53
2018-07-21T05:55:53.700Z,70.99
2018-07-21T05:58:23.506Z,70.68
2018-07-21T06:00:53.332Z,70.73
2018-07-21T06:03:23.486Z,70.89
2018-07-21T06:05:53.284Z,70.70
2018-07-21T06:08:23.102Z,69.98
2018-07-21T06:10:52.960Z,70.01
2018-07-21T06:13:22.750Z,70.25
2018-07-21T06:15:52.544Z,70.20
2018-07-21T06:18:22.358Z,70.04
2018-07-21T06:20:52.182Z,70.45
2018-07-21T06:23:22.085Z,70.45
2018-07-21T06:25:52.716Z,70.57
2018-07-21T06:28:22.514Z,70.61
2018-07-21T06:30:52.456Z,70.74
2018-07-21T06:33:22.337Z,69.98
2018-07-21T06:35:52.138Z,69.96
2018-07-21T06:38:21.984Z,69.76
2018-07-21T06:40:51.766Z,69.75
2018-07-21T06:43:22.199Z,68.98
2018-07-21T06:45:52.072Z,68.27
2018-07-21T06:48:21.824Z,68.25
2018-07-21T06:50:52.148Z,68.36
2018-07-21T06:53:22.484Z,68.16
2018-07-21T06:55:52.840Z,67.10
2018-07-21T06:58:23.326Z,66.82
2018-07-21T07:00:53.708Z,66.41
2018-07-21T07:03:24.138Z,65.71
2018-07-21T07:05:54.528Z,66.01
2018-07-21T07:08:24.934Z,65.65
2018-07-21T07:10:55.308Z,65.92
2018-07-21T07:13:25.804Z,66.02
2018-07-21T07:15:56.116Z,67.11
2018-07-21T07:18:26.571Z,66.80
2018-07-21T07:20:57.004Z,67.24
2018-07-21T07:23:27.462Z,67.29
2018-07-21T07:25:57.828Z,67.44
2018-07-21T07:28:28.190Z,67.52
2018-07-21T07:30:58.592Z,66.96
2018-07-21T07:33:29.212Z,66.42
2018-07-21T07:36:00.047Z,66.95
2018-07-21T07:38:30.755Z,65.93
2018-07-21T07:43:30.475Z,65.97
2018-07-21T07:46:01.005Z,66.02
2018-07-21T07:48:31.430Z,65.61
2018-07-21T07:51:01.896Z,66.00
2018-07-21T07:53:32.607Z,66.55
2018-07-21T07:56:03.385Z,65.22
2018-07-21T07:58:34.392Z,64.36
2018-07-21T08:01:04.926Z,64.92
2018-07-21T08:03:36.436Z,64.77
2018-07-21T08:06:07.182Z,64.73
2018-07-21T08:08:37.535Z,65.14
2018-07-21T08:11:07.951Z,65.63
2018-07-21T08:13:38.349Z,64.79
2018-07-21T08:16:08.795Z,65.25
2018-07-21T08:18:39.203Z,64.98
2018-07-21T08:21:09.685Z,65.04
2018-07-21T08:23:40.061Z,64.76
2018-07-21T08:26:10.949Z,64.46
2018-07-21T08:28:41.663Z,64.46
2018-07-21T08:31:12.659Z,64.17
2018-07-21T08:33:43.063Z,63.13
2018-07-21T08:36:13.479Z,63.53
2018-07-21T08:38:44.007Z,63.16
2018-07-21T08:41:14.410Z,62.63
2018-07-21T08:43:44.813Z,62.23
2018-07-21T08:46:15.289Z,61.93
2018-07-21T08:48:45.687Z,60.66
2018-07-21T08:51:16.248Z,60.21
2018-07-21T08:53:46.903Z,59.30
2018-07-21T08:56:17.365Z,58.98
2018-07-21T08:58:47.725Z,57.83
2018-07-21T09:01:18.161Z,57.47
2018-07-21T09:03:48.509Z,57.11
2018-07-21T09:06:18.956Z,56.60
2018-07-21T09:08:49.755Z,56.33
2018-07-21T09:11:20.549Z,55.72
2018-07-21T09:13:50.927Z,56.49
2018-07-21T09:16:21.651Z,56.50
2018-07-21T09:18:52.017Z,56.37
2018-07-21T09:21:22.824Z,56.53
2018-07-21T09:23:53.561Z,56.50
2018-07-21T09:26:23.957Z,56.07
2018-07-21T09:28:54.777Z,56.46
2018-07-21T09:31:25.177Z,57.73
2018-07-21T09:33:56.093Z,56.79
2018-07-21T09:36:26.589Z,55.34
2018-07-21T09:38:56.943Z,54.13
2018-07-21T09:41:27.359Z,52.78
2018-07-21T09:43:57.719Z,52.82
2018-07-21T09:46:28.267Z,53.13
2018-07-21T09:48:58.633Z,52.33
2018-07-21T09:51:28.992Z,51.56
2018-07-21T09:53:59.378Z,51.56
2018-07-21T09:56:29.825Z,51.59
2018-07-21T09:59:00.281Z,52.62
2018-07-21T10:01:30.690Z,52.40
2018-07-21T10:04:01.274Z,52.21
2018-07-21T10:06:31.855Z,51.78
2018-07-21T10:09:02.216Z,52.28
2018-07-21T10:11:32.532Z,53.35
2018-07-21T10:14:02.985Z,52.73
2018-07-21T10:16:33.323Z,53.22
2018-07-21T10:19:03.717Z,54.34
2018-07-21T10:21:34.511Z,54.79
2018-07-21T10:24:10.354Z,55.29
2018-07-21T10:26:45.758Z,55.11
2018-07-21T10:29:16.086Z,54.96
2018-07-21T10:31:46.526Z,54.69
2018-07-21T10:34:17.232Z,52.37
2018-07-21T10:36:47.633Z,52.13
2018-07-21T10:39:17.986Z,52.84
2018-07-21T10:41:48.442Z,53.40
2018-07-21T10:44:18.835Z,52.27
2018-07-21T10:46:49.230Z,52.45
2018-07-21T10:49:19.726Z,53.02
2018-07-21T10:51:50.097Z,53.37
2018-07-21T10:54:20.477Z,51.85
2018-07-21T10:56:51.516Z,52.11
2018-07-21T10:59:21.904Z,51.23
2018-07-21T11:01:52.733Z,50.37
2018-07-21T11:04:23.166Z,48.99
2018-07-21T11:06:53.574Z,50.57
2018-07-21T11:09:24.288Z,48.87
2018-07-21T11:11:54.628Z,49.95
2018-07-21T11:14:25.106Z,50.87
2018-07-21T11:16:55.484Z,51.89
2018-07-21T11:19:25.983Z,50.84
2018-07-21T11:21:56.430Z,50.50
2018-07-21T11:24:27.066Z,49.52
2018-07-21T11:26:57.456Z,50.83
2018-07-21T11:29:27.900Z,49.34
2018-07-21T11:31:58.338Z,49.22
2018-07-21T11:34:28.772Z,48.88
2018-07-21T11:36:59.189Z,49.13
2018-07-21T11:39:29.534Z,49.42
2018-07-21T11:41:59.908Z,48.20
2018-07-21T11:44:30.750Z,47.51
2018-07-21T11:47:01.266Z,47.42
2018-07-21T11:49:31.678Z,48.76
2018-07-21T11:52:02.085Z,48.20
2018-07-21T11:54:32.466Z,48.84
2018-07-21T11:57:03.364Z,49.83
2018-07-21T11:59:33.966Z,49.81
2018-07-21T12:02:04.608Z,50.61
2018-07-21T12:04:35.030Z,50.52
2018-07-21T12:07:05.480Z,50.44
2018-07-21T12:09:35.916Z,51.88
2018-07-21T12:12:06.418Z,51.55
2018-07-21T12:14:36.816Z,51.52
2018-07-21T12:17:07.255Z,51.73
2018-07-21T12:19:37.624Z,52.98
2018-07-21T12:22:08.170Z,53.72
2018-07-21T12:24:38.556Z,52.22
2018-07-21T12:27:09.282Z,51.45
2018-07-21T12:29:39.734Z,51.44
2018-07-21T12:32:10.128Z,51.03
2018-07-21T12:34:40.480Z,49.13
2018-07-21T12:37:10.916Z,48.75
2018-07-21T12:39:41.256Z,48.04
2018-07-21T12:42:11.694Z,48.79
2018-07-21T12:44:42.347Z,49.23
2018-07-21T12:47:12.990Z,48.88
2018-07-21T12:49:43.577Z,47.71
2018-07-21T12:52:13.990Z,47.83
2018-07-21T12:54:44.376Z,49.72
2018-07-21T12:57:14.729Z,49.80
2018-07-21T12:59:45.123Z,49.53
2018-07-21T13:02:15.866Z,49.72
2018-07-21T13:04:46.233Z,49.94
2018-07-21T13:07:16.593Z,49.96
2018-07-21T13:09:47.007Z,49.95
2018-07-21T13:12:18.265Z,50.19
2018-07-21T13:14:48.643Z,49.23
2018-07-21T13:17:19.927Z,48.84
2018-07-21T13:19:50.357Z,48.18
2018-07-21T13:22:20.886Z,48.02
2018-07-21T13:24:51.814Z,49.09
2018-07-21T13:27:22.224Z,48.73
2018-07-21T13:29:52.474Z,48.78
2018-07-21T13:32:22.867Z,48.47
2018-07-21T13:34:54.124Z,49.84
2018-07-21T13:37:24.601Z,50.84
2018-07-21T13:39:58.117Z,50.22
2018-07-21T13:42:29.014Z,51.39
2018-07-21T13:44:59.401Z,52.07
2018-07-21T13:47:29.830Z,52.06
2018-07-21T13:50:00.321Z,50.99
2018-07-21T13:52:30.788Z,50.96
2018-07-21T13:55:01.500Z,51.00
2018-07-21T13:57:32.488Z,50.88
2018-07-21T14:00:03.189Z,51.57
2018-07-21T14:02:33.598Z,52.17
2018-07-21T14:05:04.077Z,52.53
2018-07-21T14:07:34.518Z,53.12
2018-07-21T14:10:05.124Z,52.01
2018-07-21T14:12:35.807Z,50.74
2018-07-21T14:15:06.768Z,50.20
2018-07-21T14:17:37.216Z,50.14
2018-07-21T14:20:07.920Z,50.81
2018-07-21T14:22:38.435Z,51.74
2018-07-21T14:25:09.575Z,52.10
2018-07-21T14:27:40.039Z,52.89
2018-07-21T14:30:10.607Z,53.85
2018-07-21T14:32:41.501Z,53.08
2018-07-21T14:35:12.625Z,53.07
2018-07-21T14:37:42.951Z,53.89
2018-07-21T14:40:13.333Z,53.50
2018-07-21T14:42:44.635Z,53.57
2018-07-21T14:45:15.047Z,54.14
2018-07-21T14:47:45.489Z,54.63
2018-07-21T14:50:17.855Z,55.28
2018-07-21T14:52:49.108Z,55.91
2018-07-21T14:55:19.776Z,56.08
2018-07-21T14:57:50.357Z,56.50
2018-07-21T15:00:20.733Z,56.06
2018-07-21T15:02:51.081Z,55.42
2018-07-21T15:05:21.789Z,56.13
2018-07-21T15:07:52.169Z,55.94
2018-07-21T15:10:22.649Z,56.09
2018-07-21T15:12:53.075Z,55.90
2018-07-21T15:15:23.473Z,57.04
2018-07-21T15:17:53.950Z,57.15
2018-07-21T15:20:24.445Z,56.91
2018-07-21T15:22:54.477Z,56.60
2018-07-21T15:25:24.869Z,57.92
2018-07-21T15:27:55.245Z,56.86
2018-07-21T15:30:25.675Z,57.71
2018-07-21T15:32:56.169Z,58.04
2018-07-21T15:35:26.599Z,58.22
2018-07-21T15:37:57.001Z,59.57
2018-07-21T15:40:27.440Z,58.71
2018-07-21T15:42:57.961Z,60.20
2018-07-21T15:45:28.481Z,60.58
2018-07-21T15:47:58.861Z,59.77
2018-07-21T15:50:29.303Z,60.31
2018-07-21T15:52:59.740Z,60.32
2018-07-21T15:55:30.543Z,61.02
2018-07-21T15:58:01.259Z,60.61
2018-07-21T16:00:31.953Z,61.49
2018-07-21T16:03:02.327Z,61.25
2018-07-21T16:05:32.683Z,61.85
2018-07-21T16:08:03.288Z,62.19
2018-07-21T16:10:33.675Z,62.54
2018-07-21T16:13:04.003Z,63.04
2018-07-21T16:15:34.397Z,62.70
2018-07-21T16:18:04.733Z,61.99
2018-07-21T16:20:35.129Z,61.61
2018-07-21T16:23:05.556Z,60.97
2018-07-21T16:25:35.898Z,61.59
2018-07-21T16:28:06.508Z,61.88
2018-07-21T16:30:36.903Z,62.45
2018-07-21T16:33:07.396Z,62.11
2018-07-21T16:35:37.744Z,63.27
2018-07-21T16:38:08.162Z,63.19
2018-07-21T16:40:38.545Z,63.57
2018-07-21T16:43:09.220Z,62.78
2018-07-21T16:45:39.890Z,62.96
2018-07-21T16:48:10.307Z,62.87
2018-07-21T16:50:40.713Z,62.56
2018-07-21T16:53:11.167Z,62.11
2018-07-21T16:55:41.925Z,62.06
2018-07-21T16:58:12.455Z,62.81
2018-07-21T17:00:43.149Z,62.84
2018-07-21T17:03:13.663Z,62.79
2018-07-21T17:05:44.022Z,62.98
2018-07-21T17:08:14.542Z,62.06
2018-07-21T17:10:45.385Z,62.19
2018-07-21T17:13:15.855Z,63.00
2018-07-21T17:15:47.327Z,62.97
2018-07-21T17:18:20.109Z,63.83
2018-07-21T17:20:51.061Z,67.19
2018-07-21T17:23:21.492Z,67.56
2018-07-21T17:25:51.881Z,69.32
2018-07-21T17:28:24.101Z,68.04
2018-07-21T17:30:54.503Z,68.76
2018-07-21T17:33:24.901Z,69.52
2018-07-21T17:35:55.419Z,69.40
2018-07-21T17:38:25.948Z,70.37
2018-07-21T17:40:56.326Z,70.15
2018-07-21T17:43:28.479Z,70.18
2018-07-21T17:46:02.081Z,70.24
2018-07-21T17:48:32.467Z,70.70
2018-07-21T17:51:02.830Z,70.87
2018-07-21T17:53:33.267Z,70.97
2018-07-21T17:56:03.613Z,70.98
2018-07-21T17:58:34.038Z,70.45
2018-07-21T18:01:04.399Z,70.27
2018-07-21T18:03:34.707Z,70.50
2018-07-21T18:06:05.227Z,70.24
2018-07-21T18:08:35.991Z,70.35
2018-07-21T18:11:06.923Z,69.67
2018-07-21T18:13:37.265Z,70.13
2018-07-21T18:16:07.713Z,70.48
2018-07-21T18:18:38.205Z,71.03
2018-07-21T18:21:08.551Z,70.43
2018-07-21T18:23:38.923Z,70.91
2018-07-21T18:26:09.277Z,70.29
2018-07-21T18:28:39.621Z,71.60
2018-07-21T18:31:10.002Z,70.97
2018-07-21T18:33:40.357Z,71.44
2018-07-21T18:36:10.743Z,71.59
2018-07-21T18:38:41.291Z,71.39
2018-07-21T18:41:11.679Z,71.62
2018-07-21T18:43:42.048Z,71.45
2018-07-21T18:46:12.585Z,71.39
2018-07-21T18:48:45.385Z,71.35
2018-07-21T18:51:15.807Z,71.84
2018-07-21T18:53:46.303Z,70.88
2018-07-21T18:56:17.068Z,71.38
2018-07-21T18:58:47.513Z,71.08
2018-07-21T19:01:17.865Z,71.14
2018-07-21T19:03:48.320Z,70.80
2018-07-21T19:06:18.967Z,71.13
2018-07-21T19:09:08.817Z,71.42
2018-07-21T19:11:39.285Z,71.47
2018-07-21T19:14:09.728Z,70.76
2018-07-21T19:16:43.988Z,71.28
2018-07-21T19:19:14.441Z,71.03
2018-07-21T19:21:45.017Z,70.79
2018-07-21T19:24:15.479Z,71.43
2018-07-21T19:26:51.322Z,71.49
2018-07-21T19:29:22.006Z,71.74
2018-07-21T19:31:57.603Z,72.18
2018-07-21T19:34:29.034Z,71.77
2018-07-21T19:36:59.422Z,72.10
2018-07-21T19:39:30.906Z,72.11
2018-07-21T19:42:04.441Z,72.52
2018-07-21T19:44:35.026Z,72.84
2018-07-21T19:47:05.875Z,72.76
2018-07-21T19:49:36.396Z,73.23
2018-07-21T19:52:07.281Z,73.38
2018-07-21T19:54:37.760Z,74.07
2018-07-21T19:57:08.410Z,73.92
2018-07-21T19:59:38.824Z,74.01
2018-07-21T20:02:09.220Z,73.99
2018-07-21T20:04:39.612Z,73.86
2018-07-21T20:07:10.920Z,73.50
2018-07-21T20:09:41.316Z,73.82
2018-07-21T20:12:11.646Z,72.95
2018-07-21T20:14:42.059Z,73.39
2018-07-21T20:17:12.752Z,72.97
2018-07-21T20:19:43.284Z,73.08
2018-07-21T20:22:13.663Z,72.42
2018-07-21T20:24:44.038Z,72.44
2018-07-21T20:27:14.396Z,72.34
2018-07-21T20:29:44.824Z,72.22
2018-07-21T20:32:15.194Z,72.38
2018-07-21T20:34:45.910Z,72.13
2018-07-21T20:37:16.337Z,72.17
2018-07-21T20:39:47.352Z,72.05
2018-07-21T20:42:17.864Z,72.29
2018-07-21T20:44:48.539Z,72.24
2018-07-21T20:47:18.971Z,72.05
2018-07-21T20:49:49.322Z,72.30
2018-07-21T20:52:19.765Z,72.16
2018-07-21T20:54:50.224Z,72.31
2018-07-21T20:57:20.591Z,72.28
2018-07-21T20:59:50.962Z,72.04
2018-07-21T21:02:21.355Z,72.15
2018-07-21T21:04:51.988Z,72.28
2018-07-21T21:07:22.703Z,71.87
2018-07-21T21:09:53.099Z,72.13
2018-07-21T21:12:23.552Z,72.31
2018-07-21T21:14:54.262Z,72.35
2018-07-21T21:17:24.660Z,73.39
2018-07-21T21:19:55.038Z,73.75
2018-07-21T21:22:25.421Z,73.53
2018-07-21T21:24:56.345Z,73.68
2018-07-21T21:27:26.687Z,73.47
2018-07-21T21:29:57.042Z,73.06
2018-07-21T21:32:27.489Z,72.94
2018-07-21T21:34:57.873Z,74.86
2018-07-21T21:37:27.636Z,78.30
2018-07-21T21:39:57.464Z,79.76
2018-07-21T21:42:27.332Z,80.59
2018-07-21T21:44:57.315Z,80.51
2018-07-21T21:47:27.124Z,81.60
2018-07-21T21:49:56.929Z,80.90
2018-07-21T21:52:27.050Z,80.90
2018-07-21T21:54:57.129Z,81.30
2018-07-21T21:57:27.341Z,80.78
2018-07-21T21:59:57.371Z,80.81
2018-07-21T22:02:27.414Z,80.87
2018-07-21T22:04:57.243Z,80.80
2018-07-21T22:07:29.248Z,80.93
2018-07-21T22:09:59.023Z,79.81
2018-07-21T22:12:28.916Z,79.48
2018-07-21T22:14:58.755Z,79.47
2018-07-21T22:17:29.247Z,79.29
2018-07-21T22:19:59.090Z,79.59
2018-07-21T22:22:28.953Z,80.29
2018-07-21T22:24:58.907Z,80.15
2018-07-21T22:27:29.119Z,79.67
2018-07-21T22:29:58.926Z,79.01
2018-07-21T22:32:29.425Z,78.83
2018-07-21T22:35:00.357Z,78.50
2018-07-21T22:37:30.861Z,77.23
2018-07-21T22:40:01.187Z,77.00
2018-07-21T22:42:31.543Z,76.94
2018-07-21T22:45:01.349Z,76.79
2018-07-21T22:47:31.721Z,76.23
2018-07-21T22:50:01.643Z,77.02
2018-07-21T22:52:32.381Z,76.92
2018-07-21T22:55:02.190Z,76.62
2018-07-21T22:57:32.569Z,76.56
2018-07-21T23:00:02.958Z,76.64
2018-07-21T23:02:33.321Z,76.34
2018-07-21T23:05:03.651Z,76.29
2018-07-21T23:07:34.001Z,77.19
2018-07-21T23:10:04.463Z,76.47
2018-07-21T23:12:35.253Z,77.35
2018-07-21T23:15:07.549Z,77.97
2018-07-21T23:17:37.397Z,80.18
2018-07-21T23:20:08.824Z,81.45
2018-07-21T23:22:39.383Z,81.51
2018-07-21T23:25:09.275Z,81.59
2018-07-21T23:27:39.105Z,81.64
2018-07-21T23:30:08.947Z,81.58
2018-07-21T23:32:40.415Z,81.69
2018-07-21T23:35:10.273Z,81.47
2018-07-21T23:37:40.187Z,81.07
2018-07-21T23:40:09.621Z,80.45
2018-07-21T23:42:39.390Z,79.36
2018-07-21T23:52:20.581Z,77.64
2018-07-21T23:54:54.724Z,77.60
2018-07-21T23:57:24.526Z,77.15
2018-07-21T23:59:54.405Z,76.76
